sensor_id;sensor_type;location;lat;lon;timestamp;P1;durP1;ratioP1;P2;durP2;ratioP2
11125;SDS011;5617;54.046;10.676;2024-03-02T00:00:06;24.23;;;16.93;;
11125;SDS011;5617;54.046;10.676;2024-03-02T00:02:19;26.63;;;18.50;;
11125;SDS011;5617;54.046;10.676;2024-03-02T00:04:29;24.53;;;18.00;;
11125;SDS011;5617;54.046;10.676;2024-03-02T00:06:39;23.77;;;16.90;;
11125;SDS011;5617;54.046;10.676;2024-03-02T00:08:48;26.13;;;17.43;;
11125;SDS011;5617;54.046;10.676;2024-03-02T00:10:57;26.17;;;18.27;;
11125;SDS011;5617;54.046;10.676;2024-03-02T00:13:06;25.53;;;18.40;;
11125;SDS011;5617;54.046;10.676;2024-03-02T00:15:24;26.67;;;18.70;;
11125;SDS011;5617;54.046;10.676;2024-03-02T00:17:51;25.07;;;17.43;;
11125;SDS011;5617;54.046;10.676;2024-03-02T00:20:02;23.83;;;17.63;;
11125;SDS011;5617;54.046;10.676;2024-03-02T00:22:15;27.03;;;18.13;;
11125;SDS011;5617;54.046;10.676;2024-03-02T00:24:25;25.13;;;17.60;;
11125;SDS011;5617;54.046;10.676;2024-03-02T00:26:39;22.90;;;16.80;;
11125;SDS011;5617;54.046;10.676;2024-03-02T00:28:48;26.13;;;18.40;;
11125;SDS011;5617;54.046;10.676;2024-03-02T00:30:58;25.63;;;18.00;;
11125;SDS011;5617;54.046;10.676;2024-03-02T00:33:06;26.00;;;17.83;;
11125;SDS011;5617;54.046;10.676;2024-03-02T00:35:16;26.83;;;18.60;;
11125;SDS011;5617;54.046;10.676;2024-03-02T00:37:35;25.70;;;18.37;;
11125;SDS011;5617;54.046;10.676;2024-03-02T00:39:45;23.77;;;18.00;;
11125;SDS011;5617;54.046;10.676;2024-03-02T00:42:03;23.93;;;17.60;;
11125;SDS011;5617;54.046;10.676;2024-03-02T00:44:13;24.17;;;16.87;;
11125;SDS011;5617;54.046;10.676;2024-03-02T00:46:24;25.83;;;18.77;;
11125;SDS011;5617;54.046;10.676;2024-03-02T00:48:34;25.17;;;17.80;;
11125;SDS011;5617;54.046;10.676;2024-03-02T00:50:44;25.27;;;17.43;;
11125;SDS011;5617;54.046;10.676;2024-03-02T00:52:55;27.43;;;17.80;;
11125;SDS011;5617;54.046;10.676;2024-03-02T00:55:04;27.13;;;18.50;;
11125;SDS011;5617;54.046;10.676;2024-03-02T00:57:14;24.20;;;17.57;;
11125;SDS011;5617;54.046;10.676;2024-03-02T00:59:24;27.27;;;17.80;;
11125;SDS011;5617;54.046;10.676;2024-03-02T01:01:35;25.40;;;17.73;;
11125;SDS011;5617;54.046;10.676;2024-03-02T01:03:47;25.43;;;17.10;;
11125;SDS011;5617;54.046;10.676;2024-03-02T01:05:58;26.33;;;17.23;;
11125;SDS011;5617;54.046;10.676;2024-03-02T01:08:08;24.30;;;17.30;;
11125;SDS011;5617;54.046;10.676;2024-03-02T01:10:17;27.57;;;18.43;;
11125;SDS011;5617;54.046;10.676;2024-03-02T01:12:29;26.07;;;17.90;;
11125;SDS011;5617;54.046;10.676;2024-03-02T01:14:38;25.83;;;18.13;;
11125;SDS011;5617;54.046;10.676;2024-03-02T01:16:47;26.40;;;18.77;;
11125;SDS011;5617;54.046;10.676;2024-03-02T01:18:58;26.17;;;17.97;;
11125;SDS011;5617;54.046;10.676;2024-03-02T01:21:08;26.63;;;18.87;;
11125;SDS011;5617;54.046;10.676;2024-03-02T01:23:17;25.73;;;17.67;;
11125;SDS011;5617;54.046;10.676;2024-03-02T01:25:27;22.70;;;17.17;;
11125;SDS011;5617;54.046;10.676;2024-03-02T01:27:35;27.13;;;17.57;;
11125;SDS011;5617;54.046;10.676;2024-03-02T01:29:43;24.97;;;18.03;;
11125;SDS011;5617;54.046;10.676;2024-03-02T01:31:52;26.23;;;17.90;;
11125;SDS011;5617;54.046;10.676;2024-03-02T01:34:05;24.47;;;17.67;;
11125;SDS011;5617;54.046;10.676;2024-03-02T01:36:15;25.90;;;17.57;;
11125;SDS011;5617;54.046;10.676;2024-03-02T01:38:23;24.53;;;16.60;;
11125;SDS011;5617;54.046;10.676;2024-03-02T01:40:34;24.93;;;17.57;;
11125;SDS011;5617;54.046;10.676;2024-03-02T01:42:45;27.10;;;18.27;;
11125;SDS011;5617;54.046;10.676;2024-03-02T01:44:54;27.23;;;17.53;;
11125;SDS011;5617;54.046;10.676;2024-03-02T01:47:02;25.37;;;17.83;;
11125;SDS011;5617;54.046;10.676;2024-03-02T01:49:13;27.70;;;18.00;;
11125;SDS011;5617;54.046;10.676;2024-03-02T01:51:24;28.13;;;18.83;;
11125;SDS011;5617;54.046;10.676;2024-03-02T01:53:33;26.97;;;18.63;;
11125;SDS011;5617;54.046;10.676;2024-03-02T01:55:41;25.77;;;18.20;;
11125;SDS011;5617;54.046;10.676;2024-03-02T01:57:50;29.30;;;17.97;;
11125;SDS011;5617;54.046;10.676;2024-03-02T01:59:58;26.87;;;18.33;;
11125;SDS011;5617;54.046;10.676;2024-03-02T02:02:10;25.97;;;18.10;;
11125;SDS011;5617;54.046;10.676;2024-03-02T02:04:23;26.73;;;18.53;;
11125;SDS011;5617;54.046;10.676;2024-03-02T02:06:35;28.37;;;18.90;;
11125;SDS011;5617;54.046;10.676;2024-03-02T02:08:44;26.87;;;19.07;;
11125;SDS011;5617;54.046;10.676;2024-03-02T02:10:56;25.43;;;18.37;;
11125;SDS011;5617;54.046;10.676;2024-03-02T02:13:22;27.60;;;17.67;;
11125;SDS011;5617;54.046;10.676;2024-03-02T02:15:31;27.90;;;19.03;;
11125;SDS011;5617;54.046;10.676;2024-03-02T02:17:41;27.17;;;19.40;;
11125;SDS011;5617;54.046;10.676;2024-03-02T02:19:52;29.90;;;19.33;;
11125;SDS011;5617;54.046;10.676;2024-03-02T02:22:04;29.23;;;19.13;;
11125;SDS011;5617;54.046;10.676;2024-03-02T02:24:13;26.63;;;18.40;;
11125;SDS011;5617;54.046;10.676;2024-03-02T02:26:21;26.17;;;18.70;;
11125;SDS011;5617;54.046;10.676;2024-03-02T02:28:31;25.97;;;18.67;;
11125;SDS011;5617;54.046;10.676;2024-03-02T02:30:40;28.27;;;18.40;;
11125;SDS011;5617;54.046;10.676;2024-03-02T02:32:52;27.77;;;18.67;;
11125;SDS011;5617;54.046;10.676;2024-03-02T02:35:05;29.20;;;18.83;;
11125;SDS011;5617;54.046;10.676;2024-03-02T02:37:17;25.80;;;18.57;;
11125;SDS011;5617;54.046;10.676;2024-03-02T02:39:25;27.93;;;19.17;;
11125;SDS011;5617;54.046;10.676;2024-03-02T02:41:35;27.13;;;18.93;;
11125;SDS011;5617;54.046;10.676;2024-03-02T02:43:43;26.33;;;18.40;;
11125;SDS011;5617;54.046;10.676;2024-03-02T02:45:54;28.50;;;19.20;;
11125;SDS011;5617;54.046;10.676;2024-03-02T02:48:03;26.07;;;18.37;;
11125;SDS011;5617;54.046;10.676;2024-03-02T02:50:12;29.53;;;19.70;;
11125;SDS011;5617;54.046;10.676;2024-03-02T02:52:24;28.70;;;19.50;;
11125;SDS011;5617;54.046;10.676;2024-03-02T02:54:32;28.30;;;19.33;;
11125;SDS011;5617;54.046;10.676;2024-03-02T02:56:42;27.47;;;18.43;;
11125;SDS011;5617;54.046;10.676;2024-03-02T02:58:51;29.77;;;18.50;;
11125;SDS011;5617;54.046;10.676;2024-03-02T03:01:00;29.73;;;19.33;;
11125;SDS011;5617;54.046;10.676;2024-03-02T03:03:12;29.07;;;19.30;;
11125;SDS011;5617;54.046;10.676;2024-03-02T03:05:22;29.43;;;19.23;;
11125;SDS011;5617;54.046;10.676;2024-03-02T03:07:38;28.93;;;19.33;;
11125;SDS011;5617;54.046;10.676;2024-03-02T03:09:47;27.90;;;18.60;;
11125;SDS011;5617;54.046;10.676;2024-03-02T03:11:55;32.33;;;21.87;;
11125;SDS011;5617;54.046;10.676;2024-03-02T03:14:04;25.50;;;18.83;;
11125;SDS011;5617;54.046;10.676;2024-03-02T03:16:12;28.87;;;19.57;;
11125;SDS011;5617;54.046;10.676;2024-03-02T03:18:20;28.07;;;18.50;;
11125;SDS011;5617;54.046;10.676;2024-03-02T03:20:29;29.83;;;19.77;;
11125;SDS011;5617;54.046;10.676;2024-03-02T03:22:39;29.73;;;18.50;;
11125;SDS011;5617;54.046;10.676;2024-03-02T03:24:47;27.33;;;18.73;;
11125;SDS011;5617;54.046;10.676;2024-03-02T03:26:57;29.70;;;19.67;;
11125;SDS011;5617;54.046;10.676;2024-03-02T03:29:07;28.83;;;19.40;;
11125;SDS011;5617;54.046;10.676;2024-03-02T03:31:18;29.20;;;19.30;;
11125;SDS011;5617;54.046;10.676;2024-03-02T03:33:28;28.57;;;19.10;;
11125;SDS011;5617;54.046;10.676;2024-03-02T03:35:36;27.70;;;18.73;;
11125;SDS011;5617;54.046;10.676;2024-03-02T03:37:49;26.80;;;18.80;;
11125;SDS011;5617;54.046;10.676;2024-03-02T03:39:57;29.70;;;19.77;;
11125;SDS011;5617;54.046;10.676;2024-03-02T03:42:06;29.87;;;20.70;;
11125;SDS011;5617;54.046;10.676;2024-03-02T03:44:18;27.47;;;20.00;;
11125;SDS011;5617;54.046;10.676;2024-03-02T03:46:24;31.50;;;20.80;;
11125;SDS011;5617;54.046;10.676;2024-03-02T03:48:33;32.93;;;20.77;;
11125;SDS011;5617;54.046;10.676;2024-03-02T03:50:41;30.37;;;20.63;;
11125;SDS011;5617;54.046;10.676;2024-03-02T03:52:54;30.63;;;20.47;;
11125;SDS011;5617;54.046;10.676;2024-03-02T03:55:04;31.07;;;20.50;;
11125;SDS011;5617;54.046;10.676;2024-03-02T03:57:15;30.03;;;20.47;;
11125;SDS011;5617;54.046;10.676;2024-03-02T03:59:24;31.70;;;20.43;;
11125;SDS011;5617;54.046;10.676;2024-03-02T04:01:33;33.97;;;20.67;;
11125;SDS011;5617;54.046;10.676;2024-03-02T04:03:42;31.23;;;20.37;;
11125;SDS011;5617;54.046;10.676;2024-03-02T04:05:50;30.17;;;21.13;;
11125;SDS011;5617;54.046;10.676;2024-03-02T04:08:02;29.80;;;20.33;;
11125;SDS011;5617;54.046;10.676;2024-03-02T04:10:11;30.80;;;20.93;;
11125;SDS011;5617;54.046;10.676;2024-03-02T04:12:20;29.07;;;20.23;;
11125;SDS011;5617;54.046;10.676;2024-03-02T04:14:30;31.17;;;20.53;;
11125;SDS011;5617;54.046;10.676;2024-03-02T04:16:38;31.03;;;20.47;;
11125;SDS011;5617;54.046;10.676;2024-03-02T04:18:46;30.43;;;21.00;;
11125;SDS011;5617;54.046;10.676;2024-03-02T04:20:55;30.23;;;21.20;;
11125;SDS011;5617;54.046;10.676;2024-03-02T04:23:07;29.83;;;20.13;;
11125;SDS011;5617;54.046;10.676;2024-03-02T04:25:16;32.33;;;21.10;;
11125;SDS011;5617;54.046;10.676;2024-03-02T04:27:24;29.20;;;19.97;;
11125;SDS011;5617;54.046;10.676;2024-03-02T04:29:33;34.03;;;22.60;;
11125;SDS011;5617;54.046;10.676;2024-03-02T04:31:41;30.83;;;20.80;;
11125;SDS011;5617;54.046;10.676;2024-03-02T04:33:56;31.20;;;21.03;;
11125;SDS011;5617;54.046;10.676;2024-03-02T04:36:05;31.87;;;21.33;;
11125;SDS011;5617;54.046;10.676;2024-03-02T04:38:17;31.70;;;19.67;;
11125;SDS011;5617;54.046;10.676;2024-03-02T04:40:28;31.97;;;21.23;;
11125;SDS011;5617;54.046;10.676;2024-03-02T04:42:36;32.10;;;20.03;;
11125;SDS011;5617;54.046;10.676;2024-03-02T04:44:45;29.47;;;20.20;;
11125;SDS011;5617;54.046;10.676;2024-03-02T04:46:53;33.47;;;21.03;;
11125;SDS011;5617;54.046;10.676;2024-03-02T04:49:02;31.03;;;20.77;;
11125;SDS011;5617;54.046;10.676;2024-03-02T04:51:11;29.63;;;20.23;;
11125;SDS011;5617;54.046;10.676;2024-03-02T04:53:21;31.90;;;20.40;;
11125;SDS011;5617;54.046;10.676;2024-03-02T04:55:29;30.57;;;20.77;;
11125;SDS011;5617;54.046;10.676;2024-03-02T04:58:04;28.80;;;20.50;;
11125;SDS011;5617;54.046;10.676;2024-03-02T05:00:13;30.37;;;20.00;;
11125;SDS011;5617;54.046;10.676;2024-03-02T05:02:21;31.00;;;20.23;;
11125;SDS011;5617;54.046;10.676;2024-03-02T05:04:29;34.37;;;21.17;;
11125;SDS011;5617;54.046;10.676;2024-03-02T05:06:38;29.30;;;21.40;;
11125;SDS011;5617;54.046;10.676;2024-03-02T05:08:49;32.83;;;21.37;;
11125;SDS011;5617;54.046;10.676;2024-03-02T05:10:57;32.17;;;20.93;;
11125;SDS011;5617;54.046;10.676;2024-03-02T05:13:25;30.67;;;21.33;;
11125;SDS011;5617;54.046;10.676;2024-03-02T05:15:34;27.13;;;19.60;;
11125;SDS011;5617;54.046;10.676;2024-03-02T05:17:42;31.10;;;21.07;;
11125;SDS011;5617;54.046;10.676;2024-03-02T05:19:51;34.40;;;20.83;;
11125;SDS011;5617;54.046;10.676;2024-03-02T05:22:00;30.43;;;22.00;;
11125;SDS011;5617;54.046;10.676;2024-03-02T05:24:11;29.83;;;20.67;;
11125;SDS011;5617;54.046;10.676;2024-03-02T05:26:18;31.77;;;20.20;;
11125;SDS011;5617;54.046;10.676;2024-03-02T05:28:27;29.53;;;20.40;;
11125;SDS011;5617;54.046;10.676;2024-03-02T05:30:36;34.33;;;21.10;;
11125;SDS011;5617;54.046;10.676;2024-03-02T05:32:48;29.20;;;20.03;;
11125;SDS011;5617;54.046;10.676;2024-03-02T05:34:56;29.43;;;20.67;;
11125;SDS011;5617;54.046;10.676;2024-03-02T05:37:04;31.30;;;19.77;;
11125;SDS011;5617;54.046;10.676;2024-03-02T05:39:14;29.63;;;20.67;;
11125;SDS011;5617;54.046;10.676;2024-03-02T05:41:22;30.93;;;21.10;;
11125;SDS011;5617;54.046;10.676;2024-03-02T05:43:31;29.57;;;20.50;;
11125;SDS011;5617;54.046;10.676;2024-03-02T05:45:38;32.93;;;21.43;;
11125;SDS011;5617;54.046;10.676;2024-03-02T05:47:48;31.73;;;20.57;;
11125;SDS011;5617;54.046;10.676;2024-03-02T05:49:59;33.07;;;21.37;;
11125;SDS011;5617;54.046;10.676;2024-03-02T05:52:08;30.30;;;20.83;;
11125;SDS011;5617;54.046;10.676;2024-03-02T05:54:18;32.03;;;20.77;;
11125;SDS011;5617;54.046;10.676;2024-03-02T05:56:27;33.60;;;21.03;;
11125;SDS011;5617;54.046;10.676;2024-03-02T05:58:35;33.00;;;21.57;;
11125;SDS011;5617;54.046;10.676;2024-03-02T06:01:00;30.97;;;21.30;;
11125;SDS011;5617;54.046;10.676;2024-03-02T06:03:08;34.30;;;22.57;;
11125;SDS011;5617;54.046;10.676;2024-03-02T06:05:17;34.00;;;22.20;;
11125;SDS011;5617;54.046;10.676;2024-03-02T06:07:28;32.37;;;21.90;;
11125;SDS011;5617;54.046;10.676;2024-03-02T06:09:37;34.80;;;22.33;;
11125;SDS011;5617;54.046;10.676;2024-03-02T06:11:46;34.40;;;21.77;;
11125;SDS011;5617;54.046;10.676;2024-03-02T06:13:54;31.87;;;21.97;;
11125;SDS011;5617;54.046;10.676;2024-03-02T06:16:09;33.43;;;22.33;;
11125;SDS011;5617;54.046;10.676;2024-03-02T06:18:18;34.77;;;22.07;;
11125;SDS011;5617;54.046;10.676;2024-03-02T06:20:26;32.10;;;21.77;;
11125;SDS011;5617;54.046;10.676;2024-03-02T06:22:46;33.40;;;21.87;;
11125;SDS011;5617;54.046;10.676;2024-03-02T06:24:57;30.13;;;20.97;;
11125;SDS011;5617;54.046;10.676;2024-03-02T06:27:07;31.87;;;21.47;;
11125;SDS011;5617;54.046;10.676;2024-03-02T06:29:15;33.40;;;22.17;;
11125;SDS011;5617;54.046;10.676;2024-03-02T06:31:23;33.87;;;21.80;;
11125;SDS011;5617;54.046;10.676;2024-03-02T06:33:34;35.13;;;23.00;;
11125;SDS011;5617;54.046;10.676;2024-03-02T06:35:42;31.00;;;21.73;;
11125;SDS011;5617;54.046;10.676;2024-03-02T06:37:50;32.77;;;22.33;;
11125;SDS011;5617;54.046;10.676;2024-03-02T06:40:00;31.90;;;21.73;;
11125;SDS011;5617;54.046;10.676;2024-03-02T06:42:09;33.53;;;21.87;;
11125;SDS011;5617;54.046;10.676;2024-03-02T06:44:25;32.53;;;21.07;;
11125;SDS011;5617;54.046;10.676;2024-03-02T06:46:36;33.47;;;21.93;;
11125;SDS011;5617;54.046;10.676;2024-03-02T06:48:47;32.60;;;21.60;;
11125;SDS011;5617;54.046;10.676;2024-03-02T06:50:56;31.07;;;20.53;;
11125;SDS011;5617;54.046;10.676;2024-03-02T06:53:05;32.73;;;21.30;;
11125;SDS011;5617;54.046;10.676;2024-03-02T06:55:15;29.90;;;19.50;;
11125;SDS011;5617;54.046;10.676;2024-03-02T06:57:25;29.97;;;19.73;;
11125;SDS011;5617;54.046;10.676;2024-03-02T06:59:33;30.07;;;20.70;;
11125;SDS011;5617;54.046;10.676;2024-03-02T07:01:43;30.40;;;21.67;;
11125;SDS011;5617;54.046;10.676;2024-03-02T07:03:51;31.13;;;21.57;;
11125;SDS011;5617;54.046;10.676;2024-03-02T07:06:00;31.17;;;21.60;;
11125;SDS011;5617;54.046;10.676;2024-03-02T07:08:24;30.13;;;20.93;;
11125;SDS011;5617;54.046;10.676;2024-03-02T07:10:52;31.80;;;21.03;;
11125;SDS011;5617;54.046;10.676;2024-03-02T07:13:01;32.10;;;20.77;;
11125;SDS011;5617;54.046;10.676;2024-03-02T07:15:09;30.60;;;21.50;;
11125;SDS011;5617;54.046;10.676;2024-03-02T07:17:53;31.90;;;21.83;;
11125;SDS011;5617;54.046;10.676;2024-03-02T07:20:04;32.27;;;21.17;;
11125;SDS011;5617;54.046;10.676;2024-03-02T07:22:13;32.10;;;20.27;;
11125;SDS011;5617;54.046;10.676;2024-03-02T07:24:29;30.17;;;20.37;;
11125;SDS011;5617;54.046;10.676;2024-03-02T07:26:47;31.40;;;21.20;;
11125;SDS011;5617;54.046;10.676;2024-03-02T07:29:01;31.47;;;21.47;;
11125;SDS011;5617;54.046;10.676;2024-03-02T07:31:09;31.33;;;21.97;;
11125;SDS011;5617;54.046;10.676;2024-03-02T07:33:25;30.83;;;20.73;;
11125;SDS011;5617;54.046;10.676;2024-03-02T07:35:36;29.47;;;20.50;;
11125;SDS011;5617;54.046;10.676;2024-03-02T07:37:57;30.73;;;21.00;;
11125;SDS011;5617;54.046;10.676;2024-03-02T07:40:05;29.37;;;19.07;;
11125;SDS011;5617;54.046;10.676;2024-03-02T07:42:28;32.77;;;21.17;;
11125;SDS011;5617;54.046;10.676;2024-03-02T07:44:37;32.93;;;21.13;;
11125;SDS011;5617;54.046;10.676;2024-03-02T07:46:53;30.87;;;21.30;;
11125;SDS011;5617;54.046;10.676;2024-03-02T07:49:10;30.47;;;21.30;;
11125;SDS011;5617;54.046;10.676;2024-03-02T07:51:18;31.93;;;21.57;;
11125;SDS011;5617;54.046;10.676;2024-03-02T07:53:27;30.43;;;20.83;;
11125;SDS011;5617;54.046;10.676;2024-03-02T07:55:36;30.23;;;20.77;;
11125;SDS011;5617;54.046;10.676;2024-03-02T07:57:46;31.57;;;21.67;;
11125;SDS011;5617;54.046;10.676;2024-03-02T07:59:59;32.00;;;22.17;;
11125;SDS011;5617;54.046;10.676;2024-03-02T08:02:07;30.10;;;21.70;;
11125;SDS011;5617;54.046;10.676;2024-03-02T08:04:15;30.50;;;21.90;;
11125;SDS011;5617;54.046;10.676;2024-03-02T08:06:29;29.70;;;21.10;;
11125;SDS011;5617;54.046;10.676;2024-03-02T08:08:41;33.10;;;22.43;;
11125;SDS011;5617;54.046;10.676;2024-03-02T08:10:56;31.73;;;21.23;;
11125;SDS011;5617;54.046;10.676;2024-03-02T08:13:24;31.13;;;21.27;;
11125;SDS011;5617;54.046;10.676;2024-03-02T08:15:36;31.33;;;22.60;;
11125;SDS011;5617;54.046;10.676;2024-03-02T08:17:45;28.33;;;20.90;;
11125;SDS011;5617;54.046;10.676;2024-03-02T08:19:56;32.37;;;22.80;;
11125;SDS011;5617;54.046;10.676;2024-03-02T08:22:05;31.70;;;21.77;;
11125;SDS011;5617;54.046;10.676;2024-03-02T08:24:25;32.87;;;23.10;;
11125;SDS011;5617;54.046;10.676;2024-03-02T08:26:34;34.37;;;22.60;;
11125;SDS011;5617;54.046;10.676;2024-03-02T08:28:55;28.70;;;21.27;;
11125;SDS011;5617;54.046;10.676;2024-03-02T08:31:21;31.57;;;21.57;;
11125;SDS011;5617;54.046;10.676;2024-03-02T08:33:48;33.57;;;22.47;;
11125;SDS011;5617;54.046;10.676;2024-03-02T08:35:57;31.73;;;21.73;;
11125;SDS011;5617;54.046;10.676;2024-03-02T08:38:24;29.30;;;20.47;;
11125;SDS011;5617;54.046;10.676;2024-03-02T08:40:51;28.23;;;20.83;;
11125;SDS011;5617;54.046;10.676;2024-03-02T08:43:18;30.43;;;21.17;;
11125;SDS011;5617;54.046;10.676;2024-03-02T08:45:46;29.03;;;20.20;;
11125;SDS011;5617;54.046;10.676;2024-03-02T08:48:00;33.63;;;23.13;;
11125;SDS011;5617;54.046;10.676;2024-03-02T08:50:09;29.47;;;21.50;;
11125;SDS011;5617;54.046;10.676;2024-03-02T08:52:30;28.90;;;20.70;;
11125;SDS011;5617;54.046;10.676;2024-03-02T08:54:38;30.63;;;21.33;;
11125;SDS011;5617;54.046;10.676;2024-03-02T08:56:47;30.93;;;20.37;;
11125;SDS011;5617;54.046;10.676;2024-03-02T08:58:56;28.53;;;20.50;;
11125;SDS011;5617;54.046;10.676;2024-03-02T09:01:06;29.03;;;20.47;;
11125;SDS011;5617;54.046;10.676;2024-03-02T09:03:32;30.27;;;21.37;;
11125;SDS011;5617;54.046;10.676;2024-03-02T09:05:54;29.73;;;20.67;;
11125;SDS011;5617;54.046;10.676;2024-03-02T09:08:03;28.30;;;20.50;;
11125;SDS011;5617;54.046;10.676;2024-03-02T09:10:13;28.00;;;20.83;;
11125;SDS011;5617;54.046;10.676;2024-03-02T09:12:22;29.50;;;20.23;;
11125;SDS011;5617;54.046;10.676;2024-03-02T09:14:32;28.30;;;20.60;;
11125;SDS011;5617;54.046;10.676;2024-03-02T09:16:43;26.03;;;20.47;;
11125;SDS011;5617;54.046;10.676;2024-03-02T09:18:56;27.60;;;19.07;;
11125;SDS011;5617;54.046;10.676;2024-03-02T09:21:05;25.63;;;19.53;;
11125;SDS011;5617;54.046;10.676;2024-03-02T09:23:26;28.37;;;20.07;;
11125;SDS011;5617;54.046;10.676;2024-03-02T09:25:34;26.30;;;19.83;;
11125;SDS011;5617;54.046;10.676;2024-03-02T09:27:43;26.27;;;19.60;;
11125;SDS011;5617;54.046;10.676;2024-03-02T09:29:52;25.33;;;19.90;;
11125;SDS011;5617;54.046;10.676;2024-03-02T09:32:02;25.70;;;19.17;;
11125;SDS011;5617;54.046;10.676;2024-03-02T09:34:12;25.87;;;19.77;;
11125;SDS011;5617;54.046;10.676;2024-03-02T09:36:21;27.20;;;19.53;;
11125;SDS011;5617;54.046;10.676;2024-03-02T09:38:35;25.73;;;19.33;;
11125;SDS011;5617;54.046;10.676;2024-03-02T09:40:43;27.40;;;20.70;;
11125;SDS011;5617;54.046;10.676;2024-03-02T09:42:58;24.87;;;18.20;;
11125;SDS011;5617;54.046;10.676;2024-03-02T09:45:08;27.93;;;19.40;;
11125;SDS011;5617;54.046;10.676;2024-03-02T09:47:18;24.70;;;18.43;;
11125;SDS011;5617;54.046;10.676;2024-03-02T09:49:32;24.13;;;18.70;;
11125;SDS011;5617;54.046;10.676;2024-03-02T09:51:39;24.93;;;17.50;;
11125;SDS011;5617;54.046;10.676;2024-03-02T09:53:54;23.40;;;18.00;;
11125;SDS011;5617;54.046;10.676;2024-03-02T09:56:21;23.63;;;17.70;;
11125;SDS011;5617;54.046;10.676;2024-03-02T09:58:34;24.33;;;17.83;;
11125;SDS011;5617;54.046;10.676;2024-03-02T10:00:44;22.87;;;17.17;;
11125;SDS011;5617;54.046;10.676;2024-03-02T10:02:54;22.37;;;17.47;;
11125;SDS011;5617;54.046;10.676;2024-03-02T10:05:07;23.83;;;17.30;;
11125;SDS011;5617;54.046;10.676;2024-03-02T10:07:17;21.50;;;16.67;;
11125;SDS011;5617;54.046;10.676;2024-03-02T10:09:26;20.77;;;15.40;;
11125;SDS011;5617;54.046;10.676;2024-03-02T10:11:35;20.80;;;16.47;;
11125;SDS011;5617;54.046;10.676;2024-03-02T10:13:45;19.87;;;15.93;;
11125;SDS011;5617;54.046;10.676;2024-03-02T10:15:56;19.27;;;15.97;;
11125;SDS011;5617;54.046;10.676;2024-03-02T10:18:26;19.30;;;15.90;;
11125;SDS011;5617;54.046;10.676;2024-03-02T10:20:36;21.83;;;16.13;;
11125;SDS011;5617;54.046;10.676;2024-03-02T10:22:46;18.93;;;15.30;;
11125;SDS011;5617;54.046;10.676;2024-03-02T10:24:54;18.40;;;15.10;;
11125;SDS011;5617;54.046;10.676;2024-03-02T10:27:08;19.20;;;16.00;;
11125;SDS011;5617;54.046;10.676;2024-03-02T10:29:18;18.87;;;14.80;;
11125;SDS011;5617;54.046;10.676;2024-03-02T10:31:27;19.33;;;15.73;;
11125;SDS011;5617;54.046;10.676;2024-03-02T10:33:39;20.03;;;15.57;;
11125;SDS011;5617;54.046;10.676;2024-03-02T10:35:51;17.37;;;14.60;;
11125;SDS011;5617;54.046;10.676;2024-03-02T10:38:00;19.63;;;15.73;;
11125;SDS011;5617;54.046;10.676;2024-03-02T10:40:11;17.60;;;13.40;;
11125;SDS011;5617;54.046;10.676;2024-03-02T10:42:21;19.27;;;14.37;;
11125;SDS011;5617;54.046;10.676;2024-03-02T10:44:32;19.67;;;14.47;;
11125;SDS011;5617;54.046;10.676;2024-03-02T10:46:42;18.70;;;14.47;;
11125;SDS011;5617;54.046;10.676;2024-03-02T10:48:54;19.67;;;14.13;;
11125;SDS011;5617;54.046;10.676;2024-03-02T10:51:10;19.77;;;13.70;;
11125;SDS011;5617;54.046;10.676;2024-03-02T10:53:18;16.70;;;13.13;;
11125;SDS011;5617;54.046;10.676;2024-03-02T10:55:27;17.03;;;13.87;;
11125;SDS011;5617;54.046;10.676;2024-03-02T10:57:40;16.67;;;13.20;;
11125;SDS011;5617;54.046;10.676;2024-03-02T10:59:51;15.43;;;12.67;;
11125;SDS011;5617;54.046;10.676;2024-03-02T11:02:03;16.40;;;12.53;;
11125;SDS011;5617;54.046;10.676;2024-03-02T11:04:16;16.57;;;13.30;;
11125;SDS011;5617;54.046;10.676;2024-03-02T11:06:28;17.00;;;13.20;;
11125;SDS011;5617;54.046;10.676;2024-03-02T11:08:36;15.70;;;13.87;;
11125;SDS011;5617;54.046;10.676;2024-03-02T11:10:48;16.50;;;13.40;;
11125;SDS011;5617;54.046;10.676;2024-03-02T11:13:00;17.37;;;12.27;;
11125;SDS011;5617;54.046;10.676;2024-03-02T11:15:15;15.63;;;12.30;;
11125;SDS011;5617;54.046;10.676;2024-03-02T11:17:26;18.23;;;12.23;;
11125;SDS011;5617;54.046;10.676;2024-03-02T11:19:37;13.70;;;11.90;;
11125;SDS011;5617;54.046;10.676;2024-03-02T11:21:47;13.90;;;11.93;;
11125;SDS011;5617;54.046;10.676;2024-03-02T11:23:56;13.20;;;11.77;;
11125;SDS011;5617;54.046;10.676;2024-03-02T11:26:16;15.20;;;12.83;;
11125;SDS011;5617;54.046;10.676;2024-03-02T11:28:34;15.40;;;12.20;;
11125;SDS011;5617;54.046;10.676;2024-03-02T11:30:50;16.10;;;11.93;;
11125;SDS011;5617;54.046;10.676;2024-03-02T11:33:02;16.03;;;11.50;;
11125;SDS011;5617;54.046;10.676;2024-03-02T11:35:15;15.20;;;10.87;;
11125;SDS011;5617;54.046;10.676;2024-03-02T11:37:24;14.13;;;12.23;;
11125;SDS011;5617;54.046;10.676;2024-03-02T11:39:33;12.60;;;10.77;;
11125;SDS011;5617;54.046;10.676;2024-03-02T11:41:45;15.33;;;11.53;;
11125;SDS011;5617;54.046;10.676;2024-03-02T11:43:57;13.10;;;10.33;;
11125;SDS011;5617;54.046;10.676;2024-03-02T11:46:08;24.00;;;11.63;;
11125;SDS011;5617;54.046;10.676;2024-03-02T11:48:19;20.43;;;10.97;;
11125;SDS011;5617;54.046;10.676;2024-03-02T11:50:33;14.00;;;10.73;;
11125;SDS011;5617;54.046;10.676;2024-03-02T11:52:46;12.50;;;10.50;;
11125;SDS011;5617;54.046;10.676;2024-03-02T11:54:55;11.67;;;9.57;;
11125;SDS011;5617;54.046;10.676;2024-03-02T11:57:09;12.03;;;10.33;;
11125;SDS011;5617;54.046;10.676;2024-03-02T11:59:16;14.07;;;10.13;;
11125;SDS011;5617;54.046;10.676;2024-03-02T12:01:25;13.70;;;10.70;;
11125;SDS011;5617;54.046;10.676;2024-03-02T12:03:35;12.00;;;9.97;;
11125;SDS011;5617;54.046;10.676;2024-03-02T12:05:44;10.13;;;8.20;;
11125;SDS011;5617;54.046;10.676;2024-03-02T12:08:01;9.90;;;7.93;;
11125;SDS011;5617;54.046;10.676;2024-03-02T12:10:10;9.93;;;8.37;;
11125;SDS011;5617;54.046;10.676;2024-03-02T12:12:26;9.23;;;7.43;;
11125;SDS011;5617;54.046;10.676;2024-03-02T12:14:38;10.63;;;9.10;;
11125;SDS011;5617;54.046;10.676;2024-03-02T12:16:46;11.07;;;9.13;;
11125;SDS011;5617;54.046;10.676;2024-03-02T12:18:55;13.60;;;9.43;;
11125;SDS011;5617;54.046;10.676;2024-03-02T12:21:05;9.83;;;8.60;;
11125;SDS011;5617;54.046;10.676;2024-03-02T12:23:15;11.40;;;8.03;;
11125;SDS011;5617;54.046;10.676;2024-03-02T12:25:24;9.07;;;7.60;;
11125;SDS011;5617;54.046;10.676;2024-03-02T12:27:34;10.93;;;8.40;;
11125;SDS011;5617;54.046;10.676;2024-03-02T12:29:42;11.63;;;8.93;;
11125;SDS011;5617;54.046;10.676;2024-03-02T12:31:51;8.80;;;7.03;;
11125;SDS011;5617;54.046;10.676;2024-03-02T12:34:00;7.33;;;6.10;;
11125;SDS011;5617;54.046;10.676;2024-03-02T12:36:10;6.53;;;5.83;;
11125;SDS011;5617;54.046;10.676;2024-03-02T12:38:20;8.07;;;6.83;;
11125;SDS011;5617;54.046;10.676;2024-03-02T12:40:32;6.73;;;6.03;;
11125;SDS011;5617;54.046;10.676;2024-03-02T12:42:40;6.43;;;5.83;;
11125;SDS011;5617;54.046;10.676;2024-03-02T12:44:49;7.10;;;6.40;;
11125;SDS011;5617;54.046;10.676;2024-03-02T12:47:02;7.53;;;6.57;;
11125;SDS011;5617;54.046;10.676;2024-03-02T12:49:11;7.67;;;6.73;;